King Salmon, AK

11:28 AM AKDT on July 06, 2015 (GMT -0800)
King Salmon | | Change Station
CLOSE
Current Station
Airport
Location: King Salmon,
Elevation: 46 ft
Nearby Weather Stations

Elev 46 ft 58.68 °N, 156.66 °W | Updated 34 minutes ago

Light Rain
Light Rain Mist
58 °F
Feels Like 58 °F
N
9
Wind Variable Wind from SSE

Today
High -- | Low -- °F
--% Chance of Precip.
Yesterday
High -- | Low -- °F
Precip. -- in
5:28 AM 11:33 PM
Waning Gibbous, 73% visible
Pressure 29.75 in
Visibility 3.0 miles
Clouds Mostly Cloudy 4400 ft
Mostly Cloudy 5000 ft
Overcast 6000 ft
Dew Point 55 °F
Humidity 90%
Rainfall 0.10 in
Snow Depth Not available.
UV 1 out of 12
Pollen Not available.
Air Quality Not available.
Flu Activity Not available.
METAR PAKN 061854Z 16008KT 3SM -RA BR BKN044 BKN050 OVC060 14/13 A2975 RMK AO2 RAB1758 SLP074 P0008 T01440128

More Conditions Fewer Conditions

Pressure 29.75 in
Visibility 3.0 miles
Clouds Mostly Cloudy 4400 ft
Mostly Cloudy 5000 ft
Overcast 6000 ft
Dew Point 55 °F
Humidity 90%
Rainfall 0.10 in
Snow Depth Not available.
UV 1 out of 12
Pollen Not available.
Air Quality Not available.
Flu Activity Not available.
METAR PAKN 061854Z 16008KT 3SM -RA BR BKN044 BKN050 OVC060 14/13 A2975 RMK AO2 RAB1758 SLP074 P0008 T01440128

More Conditions Fewer Conditions

10-Day Weather Forecast

×

Almanac

Astronomy

Jul. 06, 2015 Rise Set
Actual Time
Civil Twilight
Nautical Twilight
Astronomical Twilight
Moon
Length of Visible Light
Length of Day
Tomorrow will be .
, % of the Moon is Illuminated

Today's Extremes

State Highs State Lows

Community

WunderPhotos

Upload Photos

1,835,621 photos uploaded!

WunderBlogs® & News

Nearby

Air Quality

  Air Quality AQ Index Pollutant
Not available.

Snow Depth

Station Depth Elevation

Earthquake Activity

City Distance Mag. Time & Date
Minimum magnitude displayed is 2.5.

Coastal Water Temperatures

Place Temperature

Stations

Nearby Weather Stations

Station Location Temp. Windchill Dew Point Humidity Wind Precip. Elev Updated Type